Aérodrome :
LOGIN :

S'inscrire | Disclaimer

   EN    FR    IT 

 










Légende :    VFR   VFR Marginal   IFR   IFR Intensif   IFR Très Intensif
Visi : 
Plafond : 
>= 8 km
>= 3000ft
5 à 8 km
1000 à 3000 ft
1500m à 5 km
500 à 1000 ft
800 à 1500m
200 à 500 ft
< 800m
< 200 ft
Symboles :   Orages  Brouillard  Fortes neiges  Fortes précipitations  Vent > 20 kt
SIGMETs :   Divers  Orages  Givrage  Turbulence  Onde Orograph.  Cendres Volcan.







- Altitude de l'aérodrome : 1521 ft
- Code IATA : NCY
- Voir les cartes d'approche


LFLP - Annecy

DERNIER METAR :
  • 240000Z AUTO VRB01KT CAVOK 18/14 Q1015

METARs EXPIRÉS :
  • 232330Z AUTO VRB03KT 9999 FEW056 BKN130 OVC160 18/13 Q1016
  • 232300Z AUTO VRB02KT CAVOK 18/13 Q1016
  • 232230Z AUTO VRB02KT CAVOK 18/14 Q1016
  • 232200Z AUTO 03002KT CAVOK 19/14 Q1016
  • 232130Z AUTO VRB02KT CAVOK 19/14 Q1016

TAF TAF LFLP
Valide du 23 à 15h jusqu'au 24 à 15h UTC


231400Z 2315/2415 24010KT 9999 SCT040
BECMG 2318/2320 VRB02KT
BECMG 2401/2403 BKN050
TEMPO 2402/2413 RA BKN014
PROB40
TEMPO 2406/2412 VRB15KT 4000 TSRA SCT009 SCT040CB
Pas de NOTAMs connus pour ce terrain.



MET'MAP, la Météo Aéronautique d'un coup d'oeil ! - Copyright ORBIFLY Décembre 2007 - Disclaimer

ORBIFLY MET'MAP TEAM :

Programmation & Développement : Alexandra Zaïnal
Conception & Développement : Baudouin d'Aumeries
Co-Programmation & Développement : Marc-Olivier Méhu
Soutien technique & logistique : Manuel Goepfert

Contact : metmap@orbifly.com




SOURCES & CREDITS :

   NOAA